Terminal Aerodrome Forecast
Issued by NWS Knoxville/Tri Cities, TN

Home | Current Version | Previous Version | Text Only | Print | Product List | Glossary On
Versions: 1 2 3 4 5 6 7 8 9 10 11 12 13
000
FTUS44 KMRX 281720
TAFCHA
TAF
KCHA 281720Z 2818/2918 17005KT P6SM FEW060 FEW250
     FM290200 VRB02KT P6SM BKN250
     FM291400 17006KT P6SM VCSH BKN050=

USA.gov is the U.S. government's official web portal to all federal, state and local government web resources and services.